METAR Formatted Surface Weather Observation
Issued by NWS

Home | Current Version | Previous Version | Text Only | Print | Product List | Glossary On
Versions: 1 2 3
586
SAUS44 KBMX 120456
MTRHEY
METAR KHEY 120453Z AUTO 00000KT 10SM OVC006 14/13 A3016 RMK AO2
SLP098 T01440128 $



USA.gov is the U.S. government's official web portal to all federal, state and local government web resources and services.